Time;durP1;ratioP1;P1;durP2;ratioP2;P2;SDS_P1;SDS_P2;PMS_P1;PMS_P2;Temp;Humidity;BMP_temperature;BMP_pressure;BME280_temperature;BME280_humidity;BME280_pressure;Samples;Min_cycle;Max_cycle;Signal;HPM_P1;HPM_P2
2022/03/19 00:02:18;;;;;;;13.77;7.53;;;;;;;;;;10326574;28;20459;-70
2022/03/19 00:07:18;;;;;;;14.88;8.43;;;;;;;;;;10326599;28;20474;-72
2022/03/19 00:12:19;;;;;;;11.50;7.78;;;;;;;;;;10326013;28;20022;-69
2022/03/19 00:17:19;;;;;;;15.05;8.55;;;;;;;;;;10342666;28;20322;-70
2022/03/19 00:22:20;;;;;;;14.55;7.28;;;;;;;;;;10325582;28;20114;-71
2022/03/19 00:27:20;;;;;;;16.42;10.18;;;;;;;;;;10326896;28;20412;-72
2022/03/19 00:32:20;;;;;;;16.33;8.55;;;;;;;;;;10340316;28;20397;-71
2022/03/19 00:37:21;;;;;;;14.13;9.90;;;;;;;;;;10330466;28;20105;-71
2022/03/19 00:42:21;;;;;;;14.85;8.57;;;;;;;;;;10345583;28;20045;-75
2022/03/19 00:47:21;;;;;;;12.48;8.00;;;;;;;;;;10327302;28;20433;-74
2022/03/19 00:52:22;;;;;;;13.82;9.82;;;;;;;;;;10303468;28;20108;-71
2022/03/19 00:57:22;;;;;;;16.83;12.97;;;;;;;;;;10304576;28;20157;-76
2022/03/19 01:02:22;;;;;;;17.73;11.05;;;;;;;;;;10306736;28;20034;-74
2022/03/19 01:07:23;;;;;;;23.53;14.53;;;;;;;;;;10311147;28;20018;-71
2022/03/19 01:12:23;;;;;;;23.27;13.13;;;;;;;;;;10323183;28;20052;-76
2022/03/19 01:17:23;;;;;;;22.85;11.05;;;;;;;;;;10291235;28;20026;-73
2022/03/19 01:22:25;;;;;;;30.00;16.88;;;;;;;;;;10303130;28;20023;-75
2022/03/19 01:27:25;;;;;;;25.98;17.60;;;;;;;;;;10288482;28;20027;-76
2022/03/19 01:32:26;;;;;;;31.08;18.95;;;;;;;;;;10302675;28;20489;-72
2022/03/19 01:37:26;;;;;;;31.00;15.20;;;;;;;;;;10286509;28;20057;-70
2022/03/19 01:42:28;;;;;;;22.25;12.77;;;;;;;;;;10298205;28;20113;-71
2022/03/19 01:47:30;;;;;;;16.30;12.20;;;;;;;;;;10327337;28;20022;-70
2022/03/19 01:52:30;;;;;;;40.05;14.52;;;;;;;;;;10327369;28;20060;-70
2022/03/19 01:57:34;;;;;;;22.25;18.23;;;;;;;;;;10325968;28;20082;-70
2022/03/19 02:02:34;;;;;;;21.70;13.75;;;;;;;;;;10325420;28;20027;-72
2022/03/19 02:07:34;;;;;;;25.07;13.27;;;;;;;;;;10325636;28;20031;-70
2022/03/19 02:12:35;;;;;;;27.02;13.43;;;;;;;;;;10307378;28;20362;-72
2022/03/19 02:17:36;;;;;;;29.65;11.63;;;;;;;;;;10297769;28;20023;-71
2022/03/19 02:22:36;;;;;;;21.23;13.20;;;;;;;;;;10299696;28;20769;-73
2022/03/19 02:27:37;;;;;;;27.58;12.40;;;;;;;;;;10324789;28;20018;-71
2022/03/19 02:32:42;;;;;;;14.80;9.60;;;;;;;;;;10317061;28;20023;-72
2022/03/19 02:37:43;;;;;;;20.00;11.60;;;;;;;;;;10294537;28;20025;-70
2022/03/19 02:42:52;;;;;;;17.90;11.10;;;;;;;;;;10317496;28;20483;-73
2022/03/19 02:47:58;;;;;;;19.52;12.32;;;;;;;;;;10317154;28;20026;-75
2022/03/19 02:52:59;;;;;;;21.77;14.02;;;;;;;;;;10293338;28;20424;-70
2022/03/19 02:58:00;;;;;;;22.70;13.10;;;;;;;;;;10324647;28;20025;-74
2022/03/19 03:03:00;;;;;;;25.77;16.75;;;;;;;;;;10322749;28;20022;-71
2022/03/19 03:08:01;;;;;;;26.87;16.77;;;;;;;;;;10299140;28;20037;-73
2022/03/19 03:13:02;;;;;;;26.35;15.40;;;;;;;;;;10320247;28;20601;-70
2022/03/19 03:18:03;;;;;;;23.80;15.93;;;;;;;;;;10320910;28;20022;-71
2022/03/19 03:23:03;;;;;;;25.65;17.55;;;;;;;;;;10293882;28;20035;-72
2022/03/19 03:28:04;;;;;;;31.23;19.25;;;;;;;;;;10307832;28;20073;-72
2022/03/19 03:33:04;;;;;;;37.93;23.53;;;;;;;;;;10319569;28;20029;-72
2022/03/19 03:38:04;;;;;;;42.63;19.13;;;;;;;;;;10322916;28;20018;-71
2022/03/19 03:43:04;;;;;;;31.70;18.37;;;;;;;;;;10318538;28;20030;-70
2022/03/19 03:48:05;;;;;;;43.00;21.67;;;;;;;;;;10290442;28;20085;-72
2022/03/19 03:53:06;;;;;;;32.78;16.80;;;;;;;;;;10310827;28;20077;-74
2022/03/19 03:58:08;;;;;;;29.35;17.50;;;;;;;;;;10304229;28;20030;-72
2022/03/19 04:03:09;;;;;;;31.13;16.77;;;;;;;;;;10297983;28;20023;-71
2022/03/19 04:08:09;;;;;;;23.23;13.80;;;;;;;;;;10300358;28;20022;-76
2022/03/19 04:13:10;;;;;;;26.70;14.97;;;;;;;;;;10311606;28;20266;-73
2022/03/19 04:18:11;;;;;;;25.75;14.32;;;;;;;;;;10291344;28;20026;-72
2022/03/19 04:23:11;;;;;;;38.17;19.85;;;;;;;;;;10289172;28;20027;-71
2022/03/19 04:28:12;;;;;;;40.45;16.75;;;;;;;;;;10281933;28;20031;-72
2022/03/19 04:33:12;;;;;;;31.90;16.88;;;;;;;;;;10295906;28;20064;-74
2022/03/19 04:38:17;;;;;;;34.97;20.13;;;;;;;;;;10312410;28;20031;-75
2022/03/19 04:43:17;;;;;;;36.60;19.10;;;;;;;;;;10319059;28;20042;-70
2022/03/19 04:48:17;;;;;;;34.20;22.07;;;;;;;;;;10296858;28;20025;-74
2022/03/19 04:53:18;;;;;;;31.33;19.58;;;;;;;;;;10291760;28;20117;-71
2022/03/19 04:58:18;;;;;;;29.30;17.88;;;;;;;;;;10328193;28;20025;-76
2022/03/19 05:03:19;;;;;;;26.33;17.17;;;;;;;;;;10327430;28;20025;-71
2022/03/19 05:08:19;;;;;;;32.80;22.38;;;;;;;;;;10329104;28;20030;-72
2022/03/19 05:13:20;;;;;;;74.95;31.40;;;;;;;;;;10321142;28;20496;-72
2022/03/19 05:18:21;;;;;;;27.02;15.95;;;;;;;;;;10317757;28;20038;-70
2022/03/19 05:23:21;;;;;;;30.77;18.33;;;;;;;;;;10311940;28;20030;-72
2022/03/19 05:28:21;;;;;;;21.93;13.03;;;;;;;;;;10303106;28;20118;-75
2022/03/19 05:34:29;;;;;;;21.37;10.90;;;;;;;;;;10314130;28;20025;-74
2022/03/19 05:38:45;;;;;;;10.82;8.00;;;;;;;;;;10325442;28;20030;-72
2022/03/19 05:43:45;;;;;;;13.82;8.35;;;;;;;;;;10321031;28;20022;-74
2022/03/19 05:48:46;;;;;;;22.45;10.32;;;;;;;;;;10315420;28;20030;-70
2022/03/19 05:53:46;;;;;;;23.65;10.55;;;;;;;;;;10293885;28;20054;-65
2022/03/19 05:58:46;;;;;;;12.83;9.13;;;;;;;;;;10284886;28;20537;-75
2022/03/19 06:03:46;;;;;;;27.13;11.97;;;;;;;;;;10301406;28;20090;-70
2022/03/19 06:08:47;;;;;;;19.45;13.77;;;;;;;;;;10314292;28;20493;-77
2022/03/19 06:13:48;;;;;;;21.15;11.85;;;;;;;;;;10316132;28;20433;-69
2022/03/19 06:18:50;;;;;;;24.40;12.52;;;;;;;;;;10313652;28;20412;-73
2022/03/19 06:23:51;;;;;;;29.10;11.73;;;;;;;;;;10317004;28;20559;-74
2022/03/19 06:28:52;;;;;;;23.25;12.15;;;;;;;;;;10324240;28;20026;-75
2022/03/19 06:33:52;;;;;;;22.25;10.77;;;;;;;;;;10323606;28;20449;-72
2022/03/19 06:38:53;;;;;;;28.20;14.77;;;;;;;;;;10315144;28;20045;-74
2022/03/19 06:43:53;;;;;;;30.10;12.50;;;;;;;;;;10308486;28;20042;-74
2022/03/19 06:48:53;;;;;;;23.23;12.50;;;;;;;;;;10323816;28;20265;-71
2022/03/19 06:53:53;;;;;;;29.05;13.18;;;;;;;;;;10319924;28;20059;-71
2022/03/19 06:58:54;;;;;;;19.95;12.43;;;;;;;;;;10298975;28;20026;-74
2022/03/19 07:03:54;;;;;;;30.03;11.77;;;;;;;;;;10308054;28;20026;-71
2022/03/19 07:08:54;;;;;;;24.42;9.45;;;;;;;;;;10311293;28;20088;-71
2022/03/19 07:13:55;;;;;;;24.60;10.05;;;;;;;;;;10305757;28;20026;-75
2022/03/19 07:18:55;;;;;;;30.13;12.30;;;;;;;;;;10306308;28;20616;-72
2022/03/19 07:23:55;;;;;;;29.50;11.77;;;;;;;;;;10307529;28;20270;-71
2022/03/19 07:28:56;;;;;;;21.65;9.93;;;;;;;;;;10312841;28;20045;-76
2022/03/19 07:34:05;;;;;;;35.13;9.80;;;;;;;;;;10311152;28;20576;-73
2022/03/19 07:39:05;;;;;;;21.67;11.52;;;;;;;;;;10313202;28;20503;-71
2022/03/19 07:44:06;;;;;;;24.38;11.55;;;;;;;;;;10315623;28;20010;-72
2022/03/19 07:49:06;;;;;;;27.17;11.63;;;;;;;;;;10342759;28;20015;-72
2022/03/19 07:54:06;;;;;;;33.67;11.60;;;;;;;;;;10315610;28;20047;-70
2022/03/19 07:59:07;;;;;;;28.40;12.73;;;;;;;;;;10315107;28;20030;-73
2022/03/19 08:04:07;;;;;;;29.30;12.95;;;;;;;;;;10316255;28;20497;-72
2022/03/19 08:09:08;;;;;;;25.60;11.30;;;;;;;;;;10340054;28;20027;-72
2022/03/19 08:14:09;;;;;;;28.23;12.40;;;;;;;;;;10323501;28;20023;-78
2022/03/19 08:19:12;;;;;;;17.90;10.27;;;;;;;;;;10307217;28;20030;-75
2022/03/19 08:24:13;;;;;;;18.23;9.43;;;;;;;;;;10340485;28;20030;-76
2022/03/19 08:29:13;;;;;;;31.20;11.52;;;;;;;;;;10325799;28;20030;-76
2022/03/19 08:34:13;;;;;;;17.90;8.70;;;;;;;;;;10308792;28;20084;-78
2022/03/19 08:44:33;;;;;;;15.80;8.57;;;;;;;;;;10321162;28;20097;-77
2022/03/19 08:49:33;;;;;;;15.38;8.27;;;;;;;;;;10328836;28;20030;-74
2022/03/19 08:54:34;;;;;;;15.60;8.63;;;;;;;;;;10320239;28;20101;-77
2022/03/19 08:59:34;;;;;;;20.90;10.55;;;;;;;;;;10300249;28;20118;-76
2022/03/19 09:04:35;;;;;;;17.80;9.77;;;;;;;;;;10289822;28;20497;-75
2022/03/19 09:09:35;;;;;;;20.85;9.77;;;;;;;;;;10317104;28;20033;-73
2022/03/19 09:14:36;;;;;;;16.98;8.95;;;;;;;;;;10326515;28;20041;-73
2022/03/19 09:19:37;;;;;;;14.13;7.78;;;;;;;;;;10300252;28;20477;-77
2022/03/19 09:24:37;;;;;;;16.75;8.18;;;;;;;;;;10325805;28;20014;-77
2022/03/19 09:29:37;;;;;;;17.00;9.17;;;;;;;;;;10302749;28;20461;-76
2022/03/19 09:34:38;;;;;;;16.93;8.37;;;;;;;;;;10287467;28;20026;-76
2022/03/19 09:39:38;;;;;;;19.30;9.55;;;;;;;;;;10300930;28;20026;-76
2022/03/19 09:44:39;;;;;;;15.60;8.98;;;;;;;;;;10326834;28;20022;-78
2022/03/19 09:49:40;;;;;;;17.90;8.25;;;;;;;;;;10296185;28;20061;-77
2022/03/19 09:54:41;;;;;;;12.23;7.85;;;;;;;;;;10317049;28;20154;-78
2022/03/19 09:59:42;;;;;;;20.20;8.88;;;;;;;;;;10320924;28;20062;-78
2022/03/19 10:04:42;;;;;;;13.30;7.10;;;;;;;;;;10285362;28;20110;-77
2022/03/19 10:09:46;;;;;;;15.57;7.90;;;;;;;;;;10321481;28;20037;-77
2022/03/19 10:14:51;;;;;;;19.50;9.52;;;;;;;;;;10323138;28;20508;-75
2022/03/19 10:19:51;;;;;;;18.63;8.85;;;;;;;;;;10323861;28;20073;-76
2022/03/19 10:24:56;;;;;;;14.60;9.63;;;;;;;;;;10323807;28;20127;-75
2022/03/19 10:30:07;;;;;;;18.25;9.50;;;;;;;;;;10318490;28;20305;-76
2022/03/19 10:35:26;;;;;;;14.35;9.15;;;;;;;;;;10321282;28;20057;-77
2022/03/19 10:40:40;;;;;;;22.77;9.77;;;;;;;;;;10324395;28;20528;-74
2022/03/19 10:45:43;;;;;;;19.35;9.20;;;;;;;;;;10324373;28;20046;-75
2022/03/19 10:50:43;;;;;;;13.48;7.80;;;;;;;;;;10323740;28;20038;-79
2022/03/19 10:55:43;;;;;;;15.70;6.15;;;;;;;;;;10322588;28;20061;-74
2022/03/19 11:00:48;;;;;;;16.15;7.07;;;;;;;;;;10289914;28;20031;-77
2022/03/19 11:05:52;;;;;;;19.70;8.30;;;;;;;;;;10304822;28;20061;-78
2022/03/19 11:10:57;;;;;;;14.98;8.30;;;;;;;;;;10322289;28;20172;-77
2022/03/19 11:15:57;;;;;;;15.05;8.02;;;;;;;;;;10317587;28;20054;-77
2022/03/19 11:20:58;;;;;;;10.80;7.10;;;;;;;;;;10296852;28;20117;-76
2022/03/19 11:26:01;;;;;;;11.68;6.90;;;;;;;;;;10321289;28;20025;-76
2022/03/19 11:31:09;;;;;;;12.00;7.00;;;;;;;;;;10313363;28;20030;-76
2022/03/19 11:36:10;;;;;;;11.97;5.87;;;;;;;;;;10289958;28;20113;-77
2022/03/19 11:41:19;;;;;;;11.48;6.95;;;;;;;;;;10282632;28;20062;-74
2022/03/19 11:46:20;;;;;;;12.73;7.57;;;;;;;;;;10288818;28;20065;-78
2022/03/19 11:51:38;;;;;;;13.80;8.83;;;;;;;;;;10312949;28;20161;-81
2022/03/19 11:56:39;;;;;;;12.75;8.52;;;;;;;;;;10324204;28;20046;-73
2022/03/19 12:01:49;;;;;;;12.27;7.93;;;;;;;;;;10325738;28;20409;-78
2022/03/19 12:06:51;;;;;;;13.07;8.60;;;;;;;;;;10304183;28;20022;-76
2022/03/19 12:12:10;;;;;;;13.93;7.68;;;;;;;;;;10296801;28;20030;-79
2022/03/19 12:17:14;;;;;;;17.02;8.77;;;;;;;;;;10311490;28;20049;-76
2022/03/19 12:22:24;;;;;;;15.48;8.43;;;;;;;;;;10288946;28;20027;-73
2022/03/19 12:27:25;;;;;;;15.50;8.52;;;;;;;;;;10320319;28;20041;-76
2022/03/19 12:32:25;;;;;;;13.18;8.45;;;;;;;;;;10437772;23;20062;-76
2022/03/19 12:37:26;;;;;;;13.93;8.27;;;;;;;;;;10340569;28;20042;-75
2022/03/19 12:42:30;;;;;;;13.65;6.97;;;;;;;;;;10303229;28;20026;-73
2022/03/19 12:47:31;;;;;;;16.45;8.25;;;;;;;;;;10286586;28;20122;-72
2022/03/19 12:52:33;;;;;;;11.73;7.32;;;;;;;;;;10286481;28;20113;-74
2022/03/19 12:57:35;;;;;;;11.15;6.60;;;;;;;;;;10287325;28;20019;-73
2022/03/19 13:02:35;;;;;;;11.80;6.97;;;;;;;;;;10304485;28;20113;-73
2022/03/19 13:07:35;;;;;;;13.95;7.55;;;;;;;;;;10343590;28;20019;-74
2022/03/19 13:12:35;;;;;;;19.52;7.78;;;;;;;;;;10321063;28;20023;-72
2022/03/19 13:17:36;;;;;;;10.73;6.72;;;;;;;;;;10325218;28;20021;-76
2022/03/19 13:22:36;;;;;;;14.53;7.80;;;;;;;;;;10326661;28;20484;-73
2022/03/19 13:27:36;;;;;;;18.00;8.40;;;;;;;;;;10325275;28;20277;-72
2022/03/19 13:32:37;;;;;;;12.65;6.63;;;;;;;;;;10324789;28;20042;-71
2022/03/19 13:37:38;;;;;;;10.68;6.07;;;;;;;;;;10326689;28;20513;-75
2022/03/19 13:42:39;;;;;;;10.00;7.22;;;;;;;;;;10324336;28;20018;-75
2022/03/19 13:47:46;;;;;;;13.82;7.60;;;;;;;;;;10324799;28;20037;-71
2022/03/19 13:52:50;;;;;;;10.98;6.78;;;;;;;;;;10324511;28;20026;-73
2022/03/19 13:58:10;;;;;;;13.02;7.00;;;;;;;;;;10324886;28;20030;-71
2022/03/19 14:03:16;;;;;;;14.63;7.00;;;;;;;;;;10305693;28;20170;-71
2022/03/19 14:08:24;;;;;;;14.50;8.13;;;;;;;;;;10300180;28;20077;-75
2022/03/19 14:13:34;;;;;;;11.00;6.97;;;;;;;;;;10299993;28;20018;-76
2022/03/19 14:18:35;;;;;;;14.52;7.03;;;;;;;;;;10298191;28;20042;-73
2022/03/19 14:23:40;;;;;;;12.00;6.85;;;;;;;;;;10322715;28;20531;-74
2022/03/19 14:28:40;;;;;;;13.15;6.70;;;;;;;;;;10324542;28;20050;-70
2022/03/19 14:33:41;;;;;;;12.87;6.87;;;;;;;;;;10306125;28;20108;-77
2022/03/19 14:38:42;;;;;;;12.88;7.40;;;;;;;;;;10321776;28;20190;-71
2022/03/19 14:43:47;;;;;;;14.48;6.97;;;;;;;;;;10284174;28;20023;-71
2022/03/19 14:48:48;;;;;;;14.38;7.60;;;;;;;;;;10298643;28;20340;-74
2022/03/19 14:53:48;;;;;;;15.70;7.10;;;;;;;;;;10295626;28;20400;-78
2022/03/19 14:58:50;;;;;;;12.53;7.33;;;;;;;;;;10319221;28;20526;-72
2022/03/19 15:03:50;;;;;;;11.35;7.47;;;;;;;;;;10314929;28;20273;-72
2022/03/19 15:08:50;;;;;;;12.00;7.27;;;;;;;;;;10309118;28;20023;-76
2022/03/19 15:13:51;;;;;;;17.07;8.10;;;;;;;;;;10307452;28;20114;-72
2022/03/19 15:18:52;;;;;;;12.10;7.38;;;;;;;;;;10321296;28;20085;-78
2022/03/19 15:23:52;;;;;;;10.73;6.97;;;;;;;;;;10320060;28;20096;-73
2022/03/19 15:28:53;;;;;;;15.73;7.07;;;;;;;;;;10320447;28;20022;-72
2022/03/19 15:33:53;;;;;;;12.13;8.40;;;;;;;;;;10319422;28;20069;-72
2022/03/19 15:38:53;;;;;;;15.20;7.77;;;;;;;;;;10320467;28;20160;-71
2022/03/19 15:43:54;;;;;;;14.13;7.28;;;;;;;;;;10320126;28;20105;-73
2022/03/19 15:48:54;;;;;;;11.63;6.45;;;;;;;;;;10305627;28;20030;-71
2022/03/19 15:53:54;;;;;;;11.02;6.47;;;;;;;;;;10321033;28;20356;-73
2022/03/19 15:58:55;;;;;;;9.80;6.90;;;;;;;;;;10321296;28;20022;-72
2022/03/19 16:03:55;;;;;;;13.07;8.18;;;;;;;;;;10305539;28;20023;-72
2022/03/19 16:08:57;;;;;;;11.90;7.80;;;;;;;;;;10301584;28;20080;-72
2022/03/19 16:13:57;;;;;;;13.30;7.95;;;;;;;;;;10320319;28;20030;-74
2022/03/19 16:18:57;;;;;;;12.32;7.50;;;;;;;;;;10320524;28;20366;-72
2022/03/19 16:23:58;;;;;;;12.23;8.10;;;;;;;;;;10320196;28;20519;-78
2022/03/19 16:28:58;;;;;;;14.05;7.60;;;;;;;;;;10320848;28;20037;-76
2022/03/19 16:33:58;;;;;;;15.77;9.25;;;;;;;;;;10323977;28;20042;-71
2022/03/19 16:38:58;;;;;;;16.67;7.95;;;;;;;;;;10326506;28;20045;-76
2022/03/19 16:43:59;;;;;;;37.22;9.07;;;;;;;;;;10327000;28;20022;-71
2022/03/19 16:48:59;;;;;;;14.30;6.93;;;;;;;;;;10326870;28;20022;-76
2022/03/19 16:53:59;;;;;;;15.75;8.40;;;;;;;;;;10342164;28;20113;-74
2022/03/19 16:59:00;;;;;;;21.50;9.20;;;;;;;;;;10325379;28;20031;-75
2022/03/19 17:04:00;;;;;;;19.85;10.02;;;;;;;;;;10327361;28;20022;-72
2022/03/19 17:09:00;;;;;;;14.32;11.00;;;;;;;;;;10327181;28;20022;-71
2022/03/19 17:14:01;;;;;;;31.23;10.40;;;;;;;;;;10326994;28;20400;-70
2022/03/19 17:19:01;;;;;;;19.25;10.35;;;;;;;;;;10292845;28;20038;-71
2022/03/19 17:24:01;;;;;;;15.32;8.75;;;;;;;;;;10290723;28;20113;-71
2022/03/19 17:29:02;;;;;;;18.93;8.57;;;;;;;;;;10324752;28;20026;-71
2022/03/19 17:34:02;;;;;;;15.48;8.63;;;;;;;;;;10318073;28;20729;-71
2022/03/19 17:39:03;;;;;;;19.03;10.40;;;;;;;;;;10284249;28;20027;-69
2022/03/19 17:44:03;;;;;;;14.07;7.80;;;;;;;;;;10300006;28;20022;-72
2022/03/19 17:49:03;;;;;;;13.20;8.10;;;;;;;;;;10285485;28;20548;-72
2022/03/19 17:54:04;;;;;;;14.52;7.95;;;;;;;;;;10322082;28;20556;-71
2022/03/19 17:59:04;;;;;;;14.93;8.60;;;;;;;;;;10323544;28;20032;-71
2022/03/19 18:04:05;;;;;;;16.50;8.68;;;;;;;;;;10321405;28;20117;-70
2022/03/19 18:09:05;;;;;;;14.25;7.95;;;;;;;;;;10285032;28;20579;-71
2022/03/19 18:14:05;;;;;;;23.05;9.55;;;;;;;;;;10315928;28;20048;-71
2022/03/19 18:19:06;;;;;;;13.57;9.55;;;;;;;;;;10324112;28;20092;-74
2022/03/19 18:24:06;;;;;;;14.18;10.07;;;;;;;;;;10323358;28;20019;-71
2022/03/19 18:29:07;;;;;;;15.75;8.98;;;;;;;;;;10322901;28;20084;-70
2022/03/19 18:34:07;;;;;;;14.05;7.95;;;;;;;;;;10323470;28;20054;-72
2022/03/19 18:39:08;;;;;;;15.80;8.20;;;;;;;;;;10323023;28;20034;-72
2022/03/19 18:44:08;;;;;;;12.13;7.03;;;;;;;;;;10323268;28;20448;-77
2022/03/19 18:49:08;;;;;;;15.90;7.40;;;;;;;;;;10322265;28;20026;-76
2022/03/19 18:54:09;;;;;;;11.80;8.02;;;;;;;;;;10320734;28;20813;-74
2022/03/19 18:59:09;;;;;;;17.55;8.48;;;;;;;;;;10305510;28;20022;-72
2022/03/19 19:04:09;;;;;;;15.03;9.30;;;;;;;;;;10322467;28;20109;-74
2022/03/19 19:09:09;;;;;;;15.05;7.78;;;;;;;;;;10321660;28;20703;-73
2022/03/19 19:14:10;;;;;;;19.13;7.40;;;;;;;;;;10320172;28;20485;-75
2022/03/19 19:19:12;;;;;;;11.97;7.03;;;;;;;;;;10323200;28;20113;-75
2022/03/19 19:24:12;;;;;;;11.93;7.05;;;;;;;;;;10323627;28;20094;-76
2022/03/19 19:29:13;;;;;;;16.73;7.75;;;;;;;;;;10320595;28;20030;-72
2022/03/19 19:34:15;;;;;;;11.68;7.50;;;;;;;;;;10320023;28;20135;-73
2022/03/19 19:39:16;;;;;;;12.82;8.57;;;;;;;;;;10321992;28;20026;-73
2022/03/19 19:44:16;;;;;;;17.48;9.52;;;;;;;;;;10321811;28;20440;-76
2022/03/19 19:49:16;;;;;;;16.92;9.23;;;;;;;;;;10321136;28;20027;-70
2022/03/19 19:54:17;;;;;;;14.50;10.10;;;;;;;;;;10321095;28;20023;-72
2022/03/19 19:59:17;;;;;;;14.15;7.43;;;;;;;;;;10320185;28;20023;-77
2022/03/19 20:04:17;;;;;;;16.60;9.70;;;;;;;;;;10303819;28;20571;-74
2022/03/19 20:09:18;;;;;;;16.93;8.67;;;;;;;;;;10326067;28;20053;-78
2022/03/19 20:14:18;;;;;;;18.20;7.88;;;;;;;;;;10327979;28;20018;-75
2022/03/19 20:19:18;;;;;;;14.75;10.25;;;;;;;;;;10325985;28;20018;-73
2022/03/19 20:24:19;;;;;;;15.37;10.27;;;;;;;;;;10327141;28;20600;-76
2022/03/19 20:29:19;;;;;;;12.68;7.93;;;;;;;;;;10325530;28;20027;-72
2022/03/19 20:34:19;;;;;;;21.67;10.55;;;;;;;;;;10323183;28;20054;-73
2022/03/19 20:39:20;;;;;;;16.95;10.23;;;;;;;;;;10322624;28;20019;-73
2022/03/19 20:44:20;;;;;;;19.80;10.30;;;;;;;;;;10320908;28;20036;-76
2022/03/19 20:54:40;;;;;;;16.77;9.95;;;;;;;;;;10323382;28;20038;-74
2022/03/19 20:59:40;;;;;;;13.95;9.10;;;;;;;;;;10321904;28;20034;-71
2022/03/19 21:04:41;;;;;;;15.25;9.23;;;;;;;;;;10318887;28;20101;-73
2022/03/19 21:09:41;;;;;;;13.60;9.25;;;;;;;;;;10344997;28;20393;-71
2022/03/19 21:14:43;;;;;;;15.02;10.75;;;;;;;;;;10327820;28;20086;-73
2022/03/19 21:19:43;;;;;;;9.88;8.90;;;;;;;;;;10326118;28;20061;-72
2022/03/19 21:24:43;;;;;;;16.13;10.13;;;;;;;;;;10315608;28;20138;-70
2022/03/19 21:29:45;;;;;;;11.57;7.90;;;;;;;;;;10284651;28;20502;-75
2022/03/19 21:34:45;;;;;;;14.32;8.20;;;;;;;;;;10286621;28;20158;-75
2022/03/19 21:45:05;;;;;;;11.50;8.77;;;;;;;;;;10300628;28;20485;-76
2022/03/19 21:50:05;;;;;;;22.40;8.85;;;;;;;;;;10313546;28;20027;-72
2022/03/19 21:55:06;;;;;;;12.73;10.02;;;;;;;;;;10308227;28;20034;-72
2022/03/19 22:00:10;;;;;;;18.27;9.65;;;;;;;;;;10300692;28;20034;-73
2022/03/19 22:05:12;;;;;;;31.52;13.23;;;;;;;;;;10288803;28;20022;-71
2022/03/19 22:10:12;;;;;;;17.60;11.32;;;;;;;;;;10310272;28;20027;-75
2022/03/19 22:15:12;;;;;;;20.10;12.68;;;;;;;;;;10325198;28;20022;-71
2022/03/19 22:20:14;;;;;;;20.67;12.75;;;;;;;;;;10324089;28;20033;-72
2022/03/19 22:25:15;;;;;;;17.70;9.40;;;;;;;;;;10308216;28;20046;-75
2022/03/19 22:30:17;;;;;;;19.77;10.73;;;;;;;;;;10316509;28;20137;-72
2022/03/19 22:35:17;;;;;;;19.13;10.93;;;;;;;;;;10324496;28;20034;-72
2022/03/19 22:40:18;;;;;;;11.82;10.52;;;;;;;;;;10288110;28;20035;-70
2022/03/19 22:45:19;;;;;;;12.90;10.32;;;;;;;;;;10283607;28;20018;-73
2022/03/19 22:50:20;;;;;;;14.07;8.65;;;;;;;;;;10299136;28;20026;-77
2022/03/19 22:55:20;;;;;;;21.08;10.68;;;;;;;;;;10323897;28;20026;-74
2022/03/19 23:00:27;;;;;;;22.55;11.23;;;;;;;;;;10318988;28;20425;-74
2022/03/19 23:05:28;;;;;;;18.20;10.23;;;;;;;;;;10332394;28;20136;-77
2022/03/19 23:10:31;;;;;;;15.35;10.30;;;;;;;;;;10323524;28;20101;-70
2022/03/19 23:15:33;;;;;;;12.88;8.93;;;;;;;;;;10323316;28;20044;-77
2022/03/19 23:20:33;;;;;;;22.15;11.82;;;;;;;;;;10323049;28;20404;-71
2022/03/19 23:25:36;;;;;;;11.68;10.43;;;;;;;;;;10324380;28;20025;-71
2022/03/19 23:30:36;;;;;;;12.88;9.30;;;;;;;;;;10323081;28;20054;-75
2022/03/19 23:35:36;;;;;;;24.52;9.27;;;;;;;;;;10323535;28;20034;-72
2022/03/19 23:40:38;;;;;;;17.70;16.13;;;;;;;;;;10322869;28;20023;-75
2022/03/19 23:45:38;;;;;;;10.63;8.05;;;;;;;;;;10317819;28;20072;-79
2022/03/19 23:50:38;;;;;;;16.13;10.25;;;;;;;;;;10330427;28;20463;-74
2022/03/19 23:55:40;;;;;;;12.48;11.18;;;;;;;;;;10330863;28;20114;-71
